ARG1655 SACO-SARI
Flight info
| Callsign | ARG1655 |
|---|---|
| Flight time | 1h 26m |
| Altitude | 33000 |
| Route | TREJO1G TREJO UL531 ERE UW14 POS UP779 DOKBA DOKBA3M |
| Aircraft | B38M/M-SDE1FGHILORVWXY/HB1 |
Departure
| Time | 2026-04-25 15:01 |
|---|---|
| Airport | Ingeniero Aeronáutico Ambrosio L.V. Taravella International Airport (SACO) |
Arrival
| Time | 2026-04-25 16:27 |
|---|---|
| Airport | Cataratas Del Iguazú International Airport (SARI) |
| Time | Latitude | Longitude | Altitude | Speed | Heading |
|---|---|---|---|---|---|
| 2026-04-25 14:22 | -31.31551 | -64.21167 | 1615 ft | 0 kts | 259° |
| 2026-04-25 14:51 | -31.31549 | -64.21149 | 1615 ft | 4 kts | 275° |
| 2026-04-25 14:51 | -31.31559 | -64.21123 | 1620 ft | 4 kts | 317° |
| 2026-04-25 14:51 | -31.31581 | -64.21107 | 1620 ft | 4 kts | 343° |
| 2026-04-25 14:52 | -31.31607 | -64.21102 | 1615 ft | 4 kts | 1° |
| 2026-04-25 14:52 | -31.31614 | -64.21103 | 1615 ft | 0 kts | 4° |
| 2026-04-25 14:55 | -31.31611 | -64.21102 | 1615 ft | 2 kts | 4° |
| 2026-04-25 14:55 | -31.31562 | -64.21092 | 1615 ft | 10 kts | 23° |
| 2026-04-25 14:55 | -31.31493 | -64.21054 | 1619 ft | 11 kts | 38° |
| 2026-04-25 14:55 | -31.31466 | -64.20975 | 1620 ft | 11 kts | 90° |
| 2026-04-25 14:56 | -31.31465 | -64.20887 | 1616 ft | 11 kts | 85° |
| 2026-04-25 14:56 | -31.31416 | -64.20831 | 1616 ft | 11 kts | 12° |
| 2026-04-25 14:56 | -31.31330 | -64.20830 | 1615 ft | 15 kts | 359° |
| 2026-04-25 14:56 | -31.31220 | -64.20831 | 1620 ft | 16 kts | 358° |
| 2026-04-25 14:57 | -31.31104 | -64.20835 | 1618 ft | 17 kts | 359° |
| 2026-04-25 14:57 | -31.30983 | -64.20836 | 1614 ft | 18 kts | 0° |
| 2026-04-25 14:57 | -31.30857 | -64.20837 | 1622 ft | 18 kts | 359° |
| 2026-04-25 14:57 | -31.30732 | -64.20840 | 1615 ft | 18 kts | 359° |
| 2026-04-25 14:58 | -31.30607 | -64.20841 | 1621 ft | 18 kts | 359° |
| 2026-04-25 14:58 | -31.30481 | -64.20843 | 1615 ft | 18 kts | 359° |
| 2026-04-25 14:58 | -31.30338 | -64.20845 | 1621 ft | 24 kts | 359° |
| 2026-04-25 14:58 | -31.30153 | -64.20848 | 1616 ft | 28 kts | 359° |
| 2026-04-25 14:59 | -31.29956 | -64.20850 | 1616 ft | 27 kts | 359° |
| 2026-04-25 14:59 | -31.29784 | -64.20853 | 1616 ft | 24 kts | 359° |
| 2026-04-25 14:59 | -31.29663 | -64.20879 | 1614 ft | 17 kts | 333° |
| 2026-04-25 14:59 | -31.29599 | -64.20870 | 1614 ft | 6 kts | 86° |
| 2026-04-25 15:00 | -31.29619 | -64.20856 | 1614 ft | 3 kts | 179° |
| 2026-04-25 15:00 | -31.29699 | -64.20856 | 1618 ft | 34 kts | 179° |
| 2026-04-25 15:00 | -31.30215 | -64.20849 | 1617 ft | 113 kts | 179° |
| 2026-04-25 15:00 | -31.31234 | -64.20833 | 1622 ft | 176 kts | 180° |
| 2026-04-25 15:01 | -31.32539 | -64.20809 | 2216 ft | 195 kts | 179° |
| 2026-04-25 15:01 | -31.33874 | -64.20693 | 3406 ft | 185 kts | 168° |
| 2026-04-25 15:01 | -31.35023 | -64.20060 | 4241 ft | 191 kts | 141° |
| 2026-04-25 15:01 | -31.35845 | -64.18725 | 4580 ft | 216 kts | 111° |
| 2026-04-25 15:02 | -31.36287 | -64.17010 | 5295 ft | 224 kts | 105° |
| 2026-04-25 15:02 | -31.36699 | -64.15232 | 6098 ft | 229 kts | 106° |
| 2026-04-25 15:02 | -31.37179 | -64.13402 | 6803 ft | 241 kts | 109° |
| 2026-04-25 15:02 | -31.37724 | -64.11496 | 7495 ft | 248 kts | 109° |
| 2026-04-25 15:03 | -31.38279 | -64.09585 | 8406 ft | 250 kts | 109° |
| 2026-04-25 15:03 | -31.38850 | -64.07633 | 9169 ft | 256 kts | 109° |
| 2026-04-25 15:03 | -31.39426 | -64.05655 | 9927 ft | 262 kts | 107° |
| 2026-04-25 15:03 | -31.39645 | -64.03468 | 10362 ft | 281 kts | 87° |
| 2026-04-25 15:04 | -31.39582 | -64.01109 | 10809 ft | 298 kts | 89° |
| 2026-04-25 15:04 | -31.39552 | -63.98638 | 11390 ft | 309 kts | 88° |
| 2026-04-25 15:04 | -31.39520 | -63.96135 | 12132 ft | 315 kts | 88° |
| 2026-04-25 15:04 | -31.39487 | -63.93500 | 12537 ft | 333 kts | 88° |
| 2026-04-25 15:05 | -31.39450 | -63.90708 | 12851 ft | 353 kts | 88° |
| 2026-04-25 15:05 | -31.39411 | -63.87767 | 13267 ft | 368 kts | 88° |
| 2026-04-25 15:05 | -31.39370 | -63.84744 | 13905 ft | 374 kts | 88° |
| 2026-04-25 15:06 | -31.39286 | -63.78558 | 15240 ft | 386 kts | 88° |
| 2026-04-25 15:06 | -31.39240 | -63.75388 | 15868 ft | 392 kts | 88° |
| 2026-04-25 15:06 | -31.39193 | -63.72176 | 16478 ft | 398 kts | 88° |
| 2026-04-25 15:06 | -31.39145 | -63.68908 | 17061 ft | 404 kts | 88° |
| 2026-04-25 15:07 | -31.38987 | -63.65606 | 17614 ft | 408 kts | 77° |
| 2026-04-25 15:07 | -31.38081 | -63.62483 | 18180 ft | 405 kts | 57° |
| 2026-04-25 15:07 | -31.36471 | -63.59802 | 18684 ft | 404 kts | 45° |
| 2026-04-25 15:07 | -31.34705 | -63.57251 | 19164 ft | 410 kts | 45° |
| 2026-04-25 15:08 | -31.32869 | -63.54642 | 19751 ft | 413 kts | 45° |
| 2026-04-25 15:08 | -31.31042 | -63.52078 | 20253 ft | 418 kts | 44° |
| 2026-04-25 15:08 | -31.29163 | -63.49463 | 20778 ft | 421 kts | 44° |
| 2026-04-25 15:08 | -31.27168 | -63.46956 | 21250 ft | 418 kts | 33° |
| 2026-04-25 15:09 | -31.24729 | -63.45223 | 21699 ft | 406 kts | 14° |
| 2026-04-25 15:09 | -31.22033 | -63.44362 | 22114 ft | 401 kts | 4° |
| 2026-04-25 15:09 | -31.16499 | -63.43120 | 23046 ft | 407 kts | 2° |
| 2026-04-25 15:10 | -31.13695 | -63.42546 | 23501 ft | 410 kts | 1° |
| 2026-04-25 15:10 | -31.10873 | -63.41987 | 23907 ft | 415 kts | 1° |
| 2026-04-25 15:10 | -31.05155 | -63.40726 | 24806 ft | 423 kts | 4° |
| 2026-04-25 15:11 | -31.02270 | -63.39985 | 25242 ft | 425 kts | 4° |
| 2026-04-25 15:11 | -30.99369 | -63.39253 | 25661 ft | 427 kts | 3° |
| 2026-04-25 15:11 | -30.96488 | -63.38532 | 26069 ft | 430 kts | 3° |
| 2026-04-25 15:12 | -30.90595 | -63.37061 | 26827 ft | 436 kts | 2° |
| 2026-04-25 15:12 | -30.87626 | -63.36321 | 27181 ft | 438 kts | 2° |
| 2026-04-25 15:12 | -30.84637 | -63.35576 | 27550 ft | 441 kts | 2° |
| 2026-04-25 15:12 | -30.83619 | -63.35323 | 27686 ft | 441 kts | 2° |
| 2026-04-25 15:13 | -30.78680 | -63.33438 | 28279 ft | 467 kts | 21° |
| 2026-04-25 15:13 | -30.73921 | -63.27981 | 29020 ft | 500 kts | 50° |
| 2026-04-25 15:13 | -30.71912 | -63.24684 | 29291 ft | 500 kts | 46° |
| 2026-04-25 15:14 | -30.69832 | -63.21421 | 29610 ft | 503 kts | 46° |
| 2026-04-25 15:14 | -30.67762 | -63.18140 | 29887 ft | 506 kts | 46° |
| 2026-04-25 15:14 | -30.65678 | -63.14829 | 30185 ft | 508 kts | 46° |
| 2026-04-25 15:14 | -30.63585 | -63.11502 | 30474 ft | 511 kts | 46° |
| 2026-04-25 15:15 | -30.61506 | -63.08201 | 30705 ft | 515 kts | 46° |
| 2026-04-25 15:15 | -30.59389 | -63.04841 | 30976 ft | 517 kts | 46° |
| 2026-04-25 15:15 | -30.57254 | -63.01456 | 31187 ft | 522 kts | 46° |
| 2026-04-25 15:15 | -30.55104 | -62.98050 | 31408 ft | 524 kts | 46° |
| 2026-04-25 15:16 | -30.52938 | -62.94622 | 31677 ft | 527 kts | 46° |
| 2026-04-25 15:16 | -30.50766 | -62.91187 | 31878 ft | 530 kts | 46° |
| 2026-04-25 15:16 | -30.46376 | -62.84255 | 32358 ft | 535 kts | 45° |
| 2026-04-25 15:17 | -30.41938 | -62.77258 | 32805 ft | 541 kts | 45° |
| 2026-04-25 15:17 | -30.39702 | -62.73736 | 32975 ft | 544 kts | 45° |
| 2026-04-25 15:17 | -30.37449 | -62.70189 | 33095 ft | 547 kts | 45° |
| 2026-04-25 15:18 | -30.35187 | -62.66652 | 33078 ft | 546 kts | 45° |
| 2026-04-25 15:18 | -30.28425 | -62.56096 | 33085 ft | 546 kts | 45° |
| 2026-04-25 15:19 | -30.25399 | -62.51380 | 33078 ft | 546 kts | 45° |
| 2026-04-25 15:19 | -30.19367 | -62.41997 | 33074 ft | 546 kts | 44° |
| 2026-04-25 15:20 | -30.14828 | -62.34950 | 33068 ft | 547 kts | 44° |
| 2026-04-25 15:20 | -30.10282 | -62.27905 | 33075 ft | 548 kts | 44° |
| 2026-04-25 15:21 | -30.05724 | -62.20852 | 33065 ft | 547 kts | 44° |
| 2026-04-25 15:21 | -30.01186 | -62.13846 | 33060 ft | 548 kts | 44° |
| 2026-04-25 15:22 | -29.96619 | -62.06804 | 33067 ft | 548 kts | 44° |
| 2026-04-25 15:22 | -29.92047 | -61.99768 | 33063 ft | 549 kts | 44° |
| 2026-04-25 15:23 | -29.87660 | -61.92541 | 33044 ft | 561 kts | 57° |
| 2026-04-25 15:23 | -29.84952 | -61.83999 | 33047 ft | 570 kts | 66° |
| 2026-04-25 15:24 | -29.82430 | -61.75349 | 33066 ft | 570 kts | 66° |
| 2026-04-25 15:24 | -29.80767 | -61.69551 | 33052 ft | 570 kts | 66° |
| 2026-04-25 15:25 | -29.77456 | -61.58027 | 33053 ft | 569 kts | 66° |
| 2026-04-25 15:25 | -29.74963 | -61.49382 | 33054 ft | 569 kts | 66° |
| 2026-04-25 15:26 | -29.72468 | -61.40752 | 33055 ft | 568 kts | 66° |
| 2026-04-25 15:26 | -29.69968 | -61.32129 | 33055 ft | 567 kts | 66° |
| 2026-04-25 15:27 | -29.67479 | -61.23567 | 33055 ft | 568 kts | 66° |
| 2026-04-25 15:28 | -29.63715 | -61.10662 | 33054 ft | 567 kts | 66° |
| 2026-04-25 15:28 | -29.61202 | -61.02076 | 33045 ft | 566 kts | 66° |
| 2026-04-25 15:29 | -29.58683 | -60.93491 | 33046 ft | 566 kts | 66° |
| 2026-04-25 15:29 | -29.56163 | -60.84921 | 33042 ft | 566 kts | 66° |
| 2026-04-25 15:30 | -29.53592 | -60.76355 | 33048 ft | 567 kts | 66° |
| 2026-04-25 15:30 | -29.51039 | -60.67862 | 33038 ft | 567 kts | 65° |
| 2026-04-25 15:31 | -29.48463 | -60.59314 | 33036 ft | 566 kts | 65° |
| 2026-04-25 15:31 | -29.45881 | -60.50766 | 33036 ft | 566 kts | 65° |
| 2026-04-25 15:32 | -29.43296 | -60.42229 | 33037 ft | 566 kts | 65° |
| 2026-04-25 15:32 | -29.40736 | -60.33694 | 33027 ft | 566 kts | 65° |
| 2026-04-25 15:33 | -29.36878 | -60.20881 | 33027 ft | 566 kts | 65° |
| 2026-04-25 15:33 | -29.34320 | -60.12414 | 33026 ft | 566 kts | 65° |
| 2026-04-25 15:34 | -29.31732 | -60.03871 | 33025 ft | 566 kts | 65° |
| 2026-04-25 15:34 | -29.30005 | -59.98179 | 33035 ft | 566 kts | 65° |
| 2026-04-25 15:35 | -29.25255 | -59.82585 | 33038 ft | 566 kts | 65° |
| 2026-04-25 15:36 | -29.21797 | -59.71274 | 33030 ft | 565 kts | 65° |
| 2026-04-25 15:36 | -29.18491 | -59.63263 | 33027 ft | 554 kts | 54° |
| 2026-04-25 15:37 | -29.14854 | -59.55482 | 33024 ft | 554 kts | 54° |
| 2026-04-25 15:37 | -29.11216 | -59.47777 | 33028 ft | 553 kts | 54° |
| 2026-04-25 15:38 | -29.07551 | -59.40033 | 33029 ft | 554 kts | 54° |
| 2026-04-25 15:38 | -29.03888 | -59.32308 | 33025 ft | 553 kts | 54° |
| 2026-04-25 15:39 | -29.00210 | -59.24569 | 33030 ft | 553 kts | 54° |
| 2026-04-25 15:39 | -28.96539 | -59.16858 | 33024 ft | 553 kts | 54° |
| 2026-04-25 15:40 | -28.93479 | -59.10439 | 33028 ft | 553 kts | 54° |
| 2026-04-25 15:40 | -28.89174 | -59.01430 | 33023 ft | 552 kts | 54° |
| 2026-04-25 15:41 | -28.85533 | -58.93763 | 33027 ft | 553 kts | 55° |
| 2026-04-25 15:41 | -28.81912 | -58.86024 | 33029 ft | 553 kts | 55° |
| 2026-04-25 15:42 | -28.78282 | -58.78298 | 33023 ft | 553 kts | 55° |
| 2026-04-25 15:42 | -28.74649 | -58.70580 | 33025 ft | 552 kts | 55° |
| 2026-04-25 15:43 | -28.71012 | -58.62868 | 33014 ft | 551 kts | 55° |
| 2026-04-25 15:43 | -28.67380 | -58.55181 | 33017 ft | 551 kts | 55° |
| 2026-04-25 15:44 | -28.63734 | -58.47511 | 33014 ft | 549 kts | 54° |
| 2026-04-25 15:44 | -28.60029 | -58.39956 | 33019 ft | 549 kts | 54° |
| 2026-04-25 15:45 | -28.56319 | -58.32377 | 33020 ft | 548 kts | 54° |
| 2026-04-25 15:45 | -28.53228 | -58.26074 | 33017 ft | 547 kts | 54° |
| 2026-04-25 15:46 | -28.48888 | -58.17237 | 33016 ft | 546 kts | 54° |
| 2026-04-25 15:46 | -28.45205 | -58.09753 | 33015 ft | 545 kts | 54° |
| 2026-04-25 15:47 | -28.41497 | -58.02232 | 33018 ft | 545 kts | 54° |
| 2026-04-25 15:47 | -28.37789 | -57.94726 | 33018 ft | 545 kts | 54° |
| 2026-04-25 15:48 | -28.34079 | -57.87226 | 33018 ft | 544 kts | 54° |
| 2026-04-25 15:48 | -28.30370 | -57.79742 | 33018 ft | 544 kts | 54° |
| 2026-04-25 15:49 | -28.26668 | -57.72256 | 33018 ft | 544 kts | 54° |
| 2026-04-25 15:49 | -28.22959 | -57.64768 | 33016 ft | 544 kts | 54° |
| 2026-04-25 15:50 | -28.19279 | -57.57331 | 33017 ft | 545 kts | 54° |
| 2026-04-25 15:50 | -28.15577 | -57.49837 | 33019 ft | 545 kts | 54° |
| 2026-04-25 15:51 | -28.12494 | -57.43606 | 33017 ft | 545 kts | 54° |
| 2026-04-25 15:51 | -28.08145 | -57.34835 | 33020 ft | 546 kts | 54° |
| 2026-04-25 15:52 | -28.04421 | -57.27339 | 33014 ft | 546 kts | 54° |
| 2026-04-25 15:52 | -28.00690 | -57.19841 | 33010 ft | 546 kts | 54° |
| 2026-04-25 15:53 | -27.96988 | -57.12413 | 33024 ft | 544 kts | 54° |
| 2026-04-25 15:53 | -27.93287 | -57.05004 | 33018 ft | 539 kts | 54° |
| 2026-04-25 15:54 | -27.89600 | -56.97635 | 33017 ft | 538 kts | 54° |
| 2026-04-25 15:54 | -27.85904 | -56.90260 | 33022 ft | 538 kts | 54° |
| 2026-04-25 15:55 | -27.82233 | -56.82947 | 33016 ft | 537 kts | 54° |
| 2026-04-25 15:55 | -27.78544 | -56.75614 | 33019 ft | 537 kts | 54° |
| 2026-04-25 15:56 | -27.74842 | -56.68265 | 33014 ft | 537 kts | 54° |
| 2026-04-25 15:56 | -27.71140 | -56.60928 | 33018 ft | 537 kts | 54° |
| 2026-04-25 15:57 | -27.67439 | -56.53607 | 33017 ft | 537 kts | 54° |
| 2026-04-25 15:57 | -27.63732 | -56.46287 | 33017 ft | 537 kts | 54° |
| 2026-04-25 15:58 | -27.60020 | -56.38969 | 33018 ft | 537 kts | 54° |
| 2026-04-25 15:58 | -27.56335 | -56.31717 | 33019 ft | 537 kts | 54° |
| 2026-04-25 15:59 | -27.52615 | -56.24409 | 33017 ft | 537 kts | 54° |
| 2026-04-25 15:59 | -27.48894 | -56.17109 | 33018 ft | 537 kts | 54° |
| 2026-04-25 16:00 | -27.46402 | -56.12228 | 33019 ft | 537 kts | 54° |
| 2026-04-25 16:00 | -27.41444 | -56.02529 | 33019 ft | 537 kts | 54° |
| 2026-04-25 16:01 | -27.37536 | -55.95411 | 33010 ft | 527 kts | 44° |
| 2026-04-25 16:01 | -27.32996 | -55.88934 | 33011 ft | 528 kts | 45° |
| 2026-04-25 16:02 | -27.28491 | -55.82480 | 32962 ft | 526 kts | 45° |
| 2026-04-25 16:02 | -27.26246 | -55.79270 | 32759 ft | 519 kts | 45° |
| 2026-04-25 16:02 | -27.24020 | -55.76089 | 32489 ft | 512 kts | 45° |
| 2026-04-25 16:03 | -27.21834 | -55.72969 | 32147 ft | 506 kts | 44° |
| 2026-04-25 16:03 | -27.19656 | -55.69862 | 31505 ft | 505 kts | 44° |
| 2026-04-25 16:03 | -27.17477 | -55.66756 | 30826 ft | 506 kts | 45° |
| 2026-04-25 16:03 | -27.15306 | -55.63663 | 30293 ft | 503 kts | 44° |
| 2026-04-25 16:04 | -27.13149 | -55.60592 | 29834 ft | 498 kts | 44° |
| 2026-04-25 16:04 | -27.11015 | -55.57556 | 29331 ft | 495 kts | 44° |
| 2026-04-25 16:04 | -27.08888 | -55.54532 | 28818 ft | 491 kts | 45° |
| 2026-04-25 16:04 | -27.06777 | -55.51533 | 28309 ft | 488 kts | 45° |
| 2026-04-25 16:05 | -27.04681 | -55.48558 | 27809 ft | 485 kts | 45° |
| 2026-04-25 16:05 | -27.02592 | -55.45595 | 27310 ft | 482 kts | 45° |
| 2026-04-25 16:05 | -26.98452 | -55.39727 | 26334 ft | 476 kts | 45° |
| 2026-04-25 16:06 | -26.96404 | -55.36826 | 25850 ft | 473 kts | 45° |
| 2026-04-25 16:06 | -26.94371 | -55.33951 | 25359 ft | 469 kts | 46° |
| 2026-04-25 16:06 | -26.92374 | -55.31126 | 24913 ft | 466 kts | 46° |
| 2026-04-25 16:06 | -26.90386 | -55.28316 | 24452 ft | 453 kts | 46° |
| 2026-04-25 16:07 | -26.88455 | -55.25588 | 24023 ft | 441 kts | 46° |
| 2026-04-25 16:07 | -26.87815 | -55.24684 | 23878 ft | 438 kts | 46° |
| 2026-04-25 16:07 | -26.84676 | -55.20258 | 23141 ft | 435 kts | 46° |
| 2026-04-25 16:07 | -26.82798 | -55.17610 | 22728 ft | 433 kts | 46° |
| 2026-04-25 16:08 | -26.80934 | -55.14983 | 22306 ft | 430 kts | 46° |
| 2026-04-25 16:08 | -26.79077 | -55.12369 | 21888 ft | 428 kts | 46° |
| 2026-04-25 16:08 | -26.77228 | -55.09766 | 21480 ft | 425 kts | 47° |
| 2026-04-25 16:08 | -26.75395 | -55.07189 | 21067 ft | 422 kts | 47° |
| 2026-04-25 16:09 | -26.73575 | -55.04630 | 20673 ft | 419 kts | 47° |
| 2026-04-25 16:09 | -26.71784 | -55.02114 | 20278 ft | 416 kts | 47° |
| 2026-04-25 16:09 | -26.69986 | -54.99589 | 19884 ft | 409 kts | 47° |
| 2026-04-25 16:09 | -26.68236 | -54.97134 | 19510 ft | 400 kts | 47° |
| 2026-04-25 16:10 | -26.66519 | -54.94726 | 19134 ft | 393 kts | 47° |
| 2026-04-25 16:10 | -26.64819 | -54.92343 | 18762 ft | 391 kts | 47° |
| 2026-04-25 16:10 | -26.63125 | -54.89969 | 18379 ft | 389 kts | 48° |
| 2026-04-25 16:10 | -26.61440 | -54.87608 | 18002 ft | 387 kts | 48° |
| 2026-04-25 16:11 | -26.59768 | -54.85268 | 17629 ft | 384 kts | 48° |
| 2026-04-25 16:11 | -26.57935 | -54.83135 | 17142 ft | 378 kts | 32° |
| 2026-04-25 16:11 | -26.55643 | -54.81830 | 16796 ft | 364 kts | 11° |
| 2026-04-25 16:11 | -26.53194 | -54.81327 | 16454 ft | 354 kts | 2° |
| 2026-04-25 16:12 | -26.50761 | -54.80982 | 16081 ft | 352 kts | 2° |
| 2026-04-25 16:12 | -26.48364 | -54.80682 | 15715 ft | 349 kts | 1° |
| 2026-04-25 16:12 | -26.45986 | -54.80403 | 15347 ft | 347 kts | 1° |
| 2026-04-25 16:12 | -26.45175 | -54.80312 | 15222 ft | 346 kts | 1° |
| 2026-04-25 16:13 | -26.41220 | -54.79880 | 14612 ft | 342 kts | 1° |
| 2026-04-25 16:13 | -26.38861 | -54.79628 | 14249 ft | 340 kts | 1° |
| 2026-04-25 16:13 | -26.36515 | -54.79380 | 13889 ft | 337 kts | 0° |
| 2026-04-25 16:13 | -26.34188 | -54.79134 | 13526 ft | 335 kts | 1° |
| 2026-04-25 16:14 | -26.31870 | -54.78890 | 13174 ft | 332 kts | 1° |
| 2026-04-25 16:14 | -26.29580 | -54.78648 | 12820 ft | 330 kts | 1° |
| 2026-04-25 16:14 | -26.27296 | -54.78408 | 12466 ft | 328 kts | 1° |
| 2026-04-25 16:14 | -26.25029 | -54.78169 | 12112 ft | 326 kts | 1° |
| 2026-04-25 16:15 | -26.22778 | -54.77933 | 11761 ft | 324 kts | 1° |
| 2026-04-25 16:15 | -26.20542 | -54.77708 | 11481 ft | 319 kts | 359° |
| 2026-04-25 16:15 | -26.18355 | -54.77568 | 11302 ft | 309 kts | 359° |
| 2026-04-25 16:15 | -26.16279 | -54.77435 | 11192 ft | 290 kts | 359° |
| 2026-04-25 16:16 | -26.14313 | -54.77306 | 11083 ft | 278 kts | 359° |
| 2026-04-25 16:16 | -26.12407 | -54.77179 | 10936 ft | 271 kts | 359° |
| 2026-04-25 16:16 | -26.10525 | -54.77055 | 10671 ft | 274 kts | 359° |
| 2026-04-25 16:16 | -26.08621 | -54.76927 | 10384 ft | 280 kts | 359° |
| 2026-04-25 16:17 | -26.06667 | -54.76796 | 10071 ft | 281 kts | 359° |
| 2026-04-25 16:17 | -26.04712 | -54.76666 | 9770 ft | 282 kts | 359° |
| 2026-04-25 16:17 | -26.02752 | -54.76535 | 9458 ft | 282 kts | 359° |
| 2026-04-25 16:17 | -26.00799 | -54.76406 | 9158 ft | 280 kts | 360° |
| 2026-04-25 16:18 | -25.98855 | -54.76275 | 8854 ft | 279 kts | 360° |
| 2026-04-25 16:18 | -25.98200 | -54.76232 | 8760 ft | 278 kts | 360° |
| 2026-04-25 16:18 | -25.95004 | -54.76017 | 8253 ft | 275 kts | 0° |
| 2026-04-25 16:18 | -25.93102 | -54.75890 | 7965 ft | 273 kts | 0° |
| 2026-04-25 16:19 | -25.91210 | -54.75764 | 7672 ft | 271 kts | 0° |
| 2026-04-25 16:19 | -25.89333 | -54.75638 | 7388 ft | 269 kts | 0° |
| 2026-04-25 16:19 | -25.87462 | -54.75513 | 7096 ft | 268 kts | 1° |
| 2026-04-25 16:20 | -25.83766 | -54.75268 | 6524 ft | 265 kts | 1° |
| 2026-04-25 16:20 | -25.81933 | -54.75146 | 6245 ft | 263 kts | 1° |
| 2026-04-25 16:20 | -25.78287 | -54.74903 | 5671 ft | 260 kts | 1° |
| 2026-04-25 16:21 | -25.76507 | -54.74784 | 5405 ft | 259 kts | 1° |
| 2026-04-25 16:21 | -25.74775 | -54.74668 | 5252 ft | 252 kts | 1° |
| 2026-04-25 16:21 | -25.73057 | -54.74553 | 5133 ft | 243 kts | 1° |
| 2026-04-25 16:21 | -25.71418 | -54.74443 | 5021 ft | 229 kts | 2° |
| 2026-04-25 16:22 | -25.69924 | -54.73958 | 4762 ft | 225 kts | 31° |
| 2026-04-25 16:22 | -25.68908 | -54.72703 | 4606 ft | 217 kts | 61° |
| 2026-04-25 16:22 | -25.68294 | -54.71195 | 4510 ft | 213 kts | 64° |
| 2026-04-25 16:22 | -25.67696 | -54.69692 | 4425 ft | 213 kts | 65° |
| 2026-04-25 16:23 | -25.67107 | -54.68186 | 4306 ft | 213 kts | 65° |
| 2026-04-25 16:23 | -25.66535 | -54.66683 | 4151 ft | 208 kts | 69° |
| 2026-04-25 16:23 | -25.66452 | -54.65102 | 3820 ft | 209 kts | 104° |
| 2026-04-25 16:23 | -25.66978 | -54.63611 | 3543 ft | 205 kts | 112° |
| 2026-04-25 16:24 | -25.67520 | -54.62183 | 3283 ft | 194 kts | 113° |
| 2026-04-25 16:24 | -25.67872 | -54.61308 | 3173 ft | 181 kts | 114° |
| 2026-04-25 16:24 | -25.68562 | -54.59664 | 2950 ft | 171 kts | 115° |
| 2026-04-25 16:24 | -25.68891 | -54.58884 | 2823 ft | 167 kts | 115° |
| 2026-04-25 16:25 | -25.69539 | -54.57344 | 2561 ft | 165 kts | 116° |
| 2026-04-25 16:25 | -25.69703 | -54.56954 | 2489 ft | 165 kts | 115° |
| 2026-04-25 16:25 | -25.70344 | -54.55425 | 2249 ft | 163 kts | 116° |
| 2026-04-25 16:25 | -25.70970 | -54.53937 | 1945 ft | 159 kts | 113° |
| 2026-04-25 16:26 | -25.71283 | -54.53185 | 1808 ft | 160 kts | 114° |
| 2026-04-25 16:26 | -25.71751 | -54.52078 | 1576 ft | 159 kts | 114° |
| 2026-04-25 16:26 | -25.72219 | -54.50980 | 1376 ft | 157 kts | 113° |
| 2026-04-25 16:26 | -25.72672 | -54.49859 | 1188 ft | 160 kts | 114° |
| 2026-04-25 16:27 | -25.73132 | -54.48764 | 964 ft | 152 kts | 115° |
| 2026-04-25 16:27 | -25.73520 | -54.47843 | 932 ft | 97 kts | 115° |
| 2026-04-25 16:27 | -25.73711 | -54.47386 | 933 ft | 33 kts | 114° |
| 2026-04-25 16:27 | -25.73796 | -54.47182 | 931 ft | 29 kts | 114° |
| 2026-04-25 16:28 | -25.73872 | -54.47001 | 932 ft | 19 kts | 115° |
| 2026-04-25 16:28 | -25.73890 | -54.46881 | 930 ft | 16 kts | 102° |
| 2026-04-25 16:28 | -25.73926 | -54.46857 | 930 ft | 2 kts | 238° |
| 2026-04-25 16:28 | -25.73918 | -54.46891 | 930 ft | 11 kts | 293° |
| 2026-04-25 16:29 | -25.73877 | -54.46990 | 931 ft | 16 kts | 295° |
| 2026-04-25 16:29 | -25.73827 | -54.47110 | 932 ft | 18 kts | 294° |
| 2026-04-25 16:29 | -25.73761 | -54.47238 | 932 ft | 17 kts | 313° |
| 2026-04-25 16:29 | -25.73671 | -54.47317 | 933 ft | 15 kts | 324° |
| 2026-04-25 16:30 | -25.73577 | -54.47392 | 932 ft | 18 kts | 324° |
| 2026-04-25 16:30 | -25.73472 | -54.47475 | 929 ft | 19 kts | 324° |
| 2026-04-25 16:30 | -25.73372 | -54.47554 | 930 ft | 12 kts | 324° |
| 2026-04-25 16:30 | -25.73311 | -54.47607 | 931 ft | 10 kts | 308° |
| 2026-04-25 16:31 | -25.73281 | -54.47671 | 929 ft | 8 kts | 295° |
| 2026-04-25 16:31 | -25.73259 | -54.47719 | 929 ft | 5 kts | 304° |
| 2026-04-25 16:31 | -25.73240 | -54.47725 | 932 ft | 2 kts | 11° |
| 2026-04-25 16:31 | -25.73221 | -54.47715 | 929 ft | 4 kts | 26° |
| 2026-04-25 16:32 | -25.73211 | -54.47710 | 929 ft | 0 kts | 26° |